• Join FlightAware (Why Join?)
  • Login
  • US Flag 
05:09AM EST


 

Airport Tracker/Info


-or-


 

Live Flight TrackerFlight Track Log ✈ EJA922 ✈ 02-Oct-2013 ✈ KAKR - KSAF

Flight Track Log - Related Links

Times and Time Zones

All times are in EDT time to prevent confusion due to time zone crossing. See the EJA922 flight status page for this flight to view local times or setup timezone preferences in your user account.

Time Position Orientation Groundspeed Altitude Reporting Facility
EDT Latitude Longitude Course Direction KTS MPH feet Rate Location/Type
05:41PM 41.0161 -81.5142 273° West 219 252 2,700  Level Cleveland Center
05:42PM 40.9836 -81.5897 240° Southwest 232 267 3,300 1,560 Climbing Cleveland Center
05:43PM 40.9253 -81.6403 213° Southwest 253 291 6,000 2,760 Climbing Cleveland Center
05:44PM 40.8886 -81.7294 241° Southwest 278 320 9,100 2,400 Climbing Cleveland Center
05:45PM 40.8869 -81.8378 269° West 291 335 11,000 1,860 Climbing Cleveland Center
05:47PM 40.8342 -82.1186 273° West  Level FlightAware Approximate
05:47PM 40.8842 -81.9661 268° West 337 388 13,000  Level Cleveland Center
05:48PM 40.8703 -82.0983 262° West 357 411 15,100 1,800 Climbing Cleveland Center
05:49PM 40.8417 -82.2553 257° West 371 427 16,900 1,560 Climbing Indianapolis Center
05:50PM 40.8169 -82.3947 257° West 383 441 18,500 1,620 Climbing Indianapolis Center
05:51PM 40.7908 -82.5356 256° West 390 449 20,300 1,560 Climbing Indianapolis Center
05:52PM 40.7653 -82.6778 257° West 392 451 21,800 1,320 Climbing Indianapolis Center
05:53PM 40.7394 -82.8236 257° West 400 460 23,100 1,200 Climbing Indianapolis Center
05:54PM 40.7122 -82.9703 256° West 408 470 24,400 1,320 Climbing Indianapolis Center
05:55PM 40.6803 -83.1475 257° West 417 480 25,900 1,200 Climbing Indianapolis Center
05:56PM 40.6547 -83.2778 256° West 424 488 26,900 1,200 Climbing Indianapolis Center
05:57PM 40.6208 -83.4614 256° West 431 496 28,500 1,320 Climbing Indianapolis Center
05:58PM 40.5925 -83.6153 256° West 436 502 29,700 960 Climbing Indianapolis Center
05:59PM 40.5689 -83.7739 259° West 444 511 30,600 1,140 Climbing Indianapolis Center
06:00PM 40.5528 -83.9367 263° West 451 519 32,100 1,620 Climbing Indianapolis Center
06:01PM 40.5378 -84.0975 263° West 446 513 34,000 900 Climbing Indianapolis Center
06:02PM 40.5181 -84.2961 263° West 462 532 34,000 240 Level Indianapolis Center
06:03PM 40.5000 -84.4700 262° West 481 554 34,600 1,200 Climbing Indianapolis Center
06:04PM 40.4825 -84.6392 262° West 472 543 36,500 1,860 Climbing Indianapolis Center
06:05PM 40.4642 -84.8017 262° West 454 522 38,500 1,980 Climbing Indianapolis Center
06:06PM 40.4458 -84.9767 262° West 442 509 40,700 1,740 Climbing Indianapolis Center
06:07PM 40.4297 -85.1267 262° West 423 487 42,200 1,080 Climbing Indianapolis Center
06:08PM 40.4131 -85.2786 262° West 423 487 43,000 360 Climbing Indianapolis Center
06:09PM 40.3994 -85.4006 262° West 428 493 43,000  Level Chicago Center
06:10PM 40.3786 -85.5883 262° West 436 502 43,000  Level Chicago Center
06:11PM 40.3606 -85.7475 262° West 442 509 43,000  Level Chicago Center
06:12PM 40.3422 -85.9056 261° West 443 510 43,000  Level Chicago Center
06:13PM 40.3239 -86.0644 261° West 445 512 43,000  Level Chicago Center
06:14PM 40.3011 -86.2556 261° West 447 514 43,000  Level Chicago Center
06:15PM 40.2819 -86.4150 261° West 448 516 43,000  Level Chicago Center
06:16PM 40.2628 -86.5742 261° West 449 517 43,000  Level Chicago Center
06:17PM 40.2425 -86.7342 261° West 450 518 43,000  Level Chicago Center
06:19PM 40.2228 -86.8944 261° West 451 519 43,000  Level Chicago Center
06:20PM 40.1989 -87.0872 261° West 452 520 43,000  Level Chicago Center
06:21PM 40.1775 -87.2483 260° West 451 519 43,000  Level Chicago Center
06:22PM 40.1575 -87.4100 261° West 453 521 43,000  Level Chicago Center
06:23PM 40.1364 -87.5731 260° West 457 526 43,000  Level Chicago Center
06:23PM 40.1225 -87.6706 259° West 457 526 43,000  Level Indianapolis Center
06:24PM 40.1022 -87.8331 261° West 456 525 43,000  Level Indianapolis Center
06:26PM 40.0664 -88.0972 260° West 463 533 43,000  Level Chicago Center
06:27PM 40.0444 -88.2522 260° West 462 532 43,000  Level Chicago Center
06:28PM 40.0225 -88.4183 260° West 463 533 43,000  Level Chicago Center
06:29PM 39.9942 -88.6156 259° West 461 531 43,000  Level Chicago Center
06:30PM 39.9711 -88.7814 260° West 462 532 43,000  Level Chicago Center
06:31PM 39.9478 -88.9450 260° West 459 528 43,000  Level Chicago Center
06:32PM 39.9214 -89.1125 258° West 465 535 43,000  Level Chicago Center
06:33PM 39.8978 -89.2775 259° West 464 534 43,000  Level Chicago Center
06:34PM 39.8725 -89.4428 259° West 464 534 43,000  Level Chicago Center
06:35PM 39.8503 -89.6058 260° West 457 526 43,000  Level Chicago Center
06:36PM 39.8275 -89.8056 262° West 462 532 43,000  Level Chicago Center
06:37PM 39.8136 -89.9728 264° West 461 531 43,000  Level Chicago Center
06:38PM 39.7978 -90.1383 263° West 458 527 43,000  Level Chicago Center
06:39PM 39.7819 -90.2981 263° West 446 513 43,000  Level Chicago Center
06:40PM 39.7647 -90.4572 262° West 442 509 43,000  Level Chicago Center
06:41PM 39.7542 -90.6228 265° West 458 527 43,000  Level Chicago Center
06:42PM 39.7342 -90.8139 262° West 449 517 43,000  Level Chicago Center
06:44PM 39.7161 -91.0078 263° West 450 518 43,000  Level Kansas City Center
06:45PM 39.7003 -91.1686 263° West 451 519 43,000  Level Kansas City Center
06:46PM 39.6844 -91.3264 263° West 452 520 43,000  Level Kansas City Center
06:47PM 39.6650 -91.5192 263° West 452 520 43,000  Level Kansas City Center
06:48PM 39.6464 -91.6819 262° West 455 524 43,000  Level Kansas City Center
06:49PM 39.6303 -91.8431 263° West 455 524 43,000  Level Kansas City Center
06:50PM 39.6133 -92.0019 262° West 451 519 43,000  Level Kansas City Center
06:51PM 39.5956 -92.1622 262° West 450 518 43,000  Level Kansas City Center
06:52PM 39.5778 -92.3222 262° West 450 518 43,000  Level Kansas City Center
06:53PM 39.5575 -92.5125 262° West 448 516 43,000  Level Kansas City Center
06:54PM 39.5392 -92.6703 261° West 447 514 43,000  Level Kansas City Center
06:55PM 39.5203 -92.8328 261° West 446 513 43,000  Level Kansas City Center
06:56PM 39.5019 -92.9872 261° West 446 513 43,000  Level Kansas City Center
06:57PM 39.4836 -93.1442 261° West 445 512 43,000  Level Kansas City Center
06:58PM 39.4606 -93.3339 261° West 446 513 43,000  Level Kansas City Center
06:59PM 39.4419 -93.4919 261° West 447 514 43,000  Level Kansas City Center
07:00PM 39.4228 -93.6503 261° West 447 514 43,000  Level Kansas City Center
07:01PM 39.4042 -93.8078 261° West 442 509 43,000  Level Kansas City Center
07:02PM 39.3828 -93.9831 261° West 441 507 43,000  Level Kansas City Center
07:03PM 39.3639 -94.1333 261° West 443 510 43,000  Level Kansas City Center
07:04PM 39.3414 -94.3083 261° West 442 509 43,000  Level Kansas City Center
07:05PM 39.3219 -94.4578 260° West 441 507 43,000  Level Kansas City Center
07:06PM 39.2989 -94.6314 260° West 440 506 43,000  Level Kansas City Center
07:07PM 39.2789 -94.7797 260° West 440 506 43,000  Level Kansas City Center
07:08PM 39.2592 -94.9575 262° West 454 522 43,000  Level Kansas City Center
07:09PM 39.2408 -95.1181 262° West 437 503 43,000  Level Kansas City Center
07:11PM 39.2211 -95.2864 261° West 442 509 43,000  Level Kansas City Center
07:12PM 39.2025 -95.4403 261° West 438 504 43,000  Level Kansas City Center
07:13PM 39.1867 -95.5908 262° West 438 504 43,000  Level Kansas City Center
07:14PM 39.1656 -95.7633 261° West 436 502 43,000  Level Kansas City Center
07:15PM 39.1478 -95.9111 261° West 436 502 43,000  Level Kansas City Center
07:16PM 39.1261 -96.0836 261° West 438 504 43,000  Level Kansas City Center
07:17PM 39.1078 -96.2303 261° West 434 499 43,000  Level Kansas City Center
07:18PM 39.0892 -96.3789 261° West 437 503 43,000  Level Kansas City Center
07:19PM 39.0669 -96.5517 261° West 439 505 43,000  Level Kansas City Center
07:20PM 39.0464 -96.6981 260° West 438 504 43,000  Level Kansas City Center
07:21PM 39.0256 -96.8678 261° West 432 497 43,000  Level Kansas City Center
07:22PM 39.0061 -97.0142 260° West 432 497 43,000  Level Kansas City Center
07:23PM 38.9839 -97.1847 261° West 435 501 43,000  Level Kansas City Center
07:24PM 38.9639 -97.3361 260° West 435 501 43,000  Level Kansas City Center
07:25PM 38.9428 -97.4861 260° West 431 496 43,000  Level Kansas City Center
07:26PM 38.9183 -97.6417 259° West 427 491 43,000  Level Kansas City Center
07:27PM 38.8683 -97.8008 248° West 431 496 43,000  Level Kansas City Center
07:28PM 38.8231 -97.9511 249° West 439 505 43,000  Level Kansas City Center
07:29PM 38.7783 -98.0931 248° West 434 499 43,000  Level Kansas City Center
07:30PM 38.7344 -98.2353 248° West 432 497 43,000  Level Kansas City Center
07:31PM 38.6894 -98.3775 248° West 433 498 43,000  Level Kansas City Center
07:32PM 38.6447 -98.5203 248° West 434 499 43,000  Level Kansas City Center
07:33PM 38.5894 -98.6903 247° West 435 501 43,000  Level Kansas City Center
07:34PM 38.5447 -98.8333 248° West 435 501 43,000  Level Kansas City Center
07:35PM 38.5003 -98.9753 248° West 433 498 43,000  Level Kansas City Center
07:36PM 38.4539 -99.1175 247° West 435 501 43,000  Level Kansas City Center
07:37PM 38.4089 -99.2600 248° West 435 501 43,000  Level Kansas City Center
07:38PM 38.3614 -99.4022 247° West 435 501 43,000  Level Kansas City Center
07:39PM 38.3111 -99.5600 248° West 438 504 43,000  Level Kansas City Center
07:40PM 38.2581 -99.7186 247° West 437 503 43,000  Level Kansas City Center
07:42PM 38.2119 -99.8542 247° West 438 504 43,000  Level Kansas City Center
07:43PM 38.1597 -100.0122 247° West 435 501 43,000  Level Kansas City Center
07:44PM 38.1147 -100.1492 247° West 438 504 43,000  Level Kansas City Center
07:45PM 38.0608 -100.3078 247° West 439 505 43,000  Level Kansas City Center
07:46PM 38.0153 -100.4422 247° West 436 502 43,000  Level Kansas City Center
07:47PM 37.9619 -100.6017 247° West 439 505 43,000  Level Kansas City Center
07:48PM 37.9158 -100.7364 247° West 439 505 43,000  Level Kansas City Center
07:49PM 37.8653 -100.8944 248° West 439 505 43,000  Level Kansas City Center
07:50PM 37.8214 -101.0303 248° West 442 509 43,000  Level Kansas City Center
07:51PM 37.7692 -101.1881 247° West 442 509 43,000  Level Kansas City Center
07:52PM 37.7244 -101.3247 248° West 442 509 43,000  Level Kansas City Center
07:53PM 37.6719 -101.4828 247° West 441 507 43,000  Level Kansas City Center
07:54PM 37.6278 -101.6189 248° West 439 505 43,000  Level Kansas City Center
07:55PM 37.5753 -101.7758 247° West 437 503 43,000  Level Kansas City Center
07:56PM 37.5303 -101.9094 247° West 434 499 43,000  Level Kansas City Center
07:57PM 37.4781 -102.0658 247° West 434 499 43,000  Level Kansas City Center
07:58PM 37.4339 -102.1992 247° West 433 498 43,000  Level Kansas City Center
07:59PM 37.3814 -102.3536 247° West 431 496 43,000  Level Kansas City Center
08:00PM 37.3464 -102.4600 248° West 430 495 43,000  Level Albuquerque Center
08:01PM 37.2956 -102.5886 244° Southwest 427 491 43,000  Level Albuquerque Center
08:02PM 37.2278 -102.7358 240° Southwest 432 497 43,000  Level Albuquerque Center
08:03PM 37.1708 -102.8600 240° Southwest 429 494 43,000  Level Albuquerque Center
08:04PM 37.1125 -102.9844 240° Southwest 430 495 43,000  Level Albuquerque Center
08:05PM 37.0472 -103.1308 241° Southwest 430 495 43,000  Level Albuquerque Center
08:06PM 36.9883 -103.2536 239° Southwest 428 493 43,000  Level Albuquerque Center
08:07PM 36.9211 -103.4006 240° Southwest 432 497 43,000  Level Albuquerque Center
08:08PM 36.8633 -103.5256 240° Southwest 432 497 43,000  Level Albuquerque Center
08:09PM 36.8047 -103.6492 239° Southwest 432 497 43,000  Level Albuquerque Center
08:10PM 36.7369 -103.7933 240° Southwest 431 496 43,000  Level Albuquerque Center
08:11PM 36.6789 -103.9186 240° Southwest 432 497 43,000  Level Albuquerque Center
08:12PM 36.6106 -104.0622 239° Southwest 434 499 43,000  Level Albuquerque Center
08:13PM 36.5494 -104.1892 239° Southwest 428 493 43,000  Level Albuquerque Center
08:14PM 36.4883 -104.3161 239° Southwest 426 490 43,000  Level Albuquerque Center
08:15PM 36.4267 -104.4433 239° Southwest 427 491 43,000  Level Albuquerque Center
08:16PM 36.3661 -104.5708 239° Southwest 427 491 43,000  Level Albuquerque Center
08:17PM 36.3039 -104.6981 239° Southwest 428 493 43,000 -1,020 Level Albuquerque Center
08:18PM 36.2314 -104.8475 239° Southwest 430 495 41,000 -3,000 Descending Albuquerque Center
08:19PM 36.1658 -104.9831 239° Southwest 447 514 36,900 -3,960 Descending Albuquerque Center
08:20PM 36.0994 -105.1181 239° Southwest 455 524 32,900 -4,080 Descending Albuquerque Center
08:21PM 36.0297 -105.2583 238° Southwest 469 540 28,500 -4,320 Descending Albuquerque Center
08:22PM 35.9594 -105.4078 240° Southwest 492 566 24,100 -3,720 Descending Albuquerque Center
08:24PM 35.9297 -105.5481 255° West 450 518 20,900 -3,240 Descending Albuquerque Center
08:25PM 35.8967 -105.7044 255° West 409 471 17,500 -2,880 Descending Albuquerque Center
08:26PM 35.8700 -105.8281 255° West 380 437 15,000 -1,260 Descending Albuquerque Center
08:27PM 35.8461 -105.9433 256° West 357 411 15,000  Level Albuquerque Center
08:28PM 35.8178 -106.0567 253° West 345 397 15,000 -1,080 Level Albuquerque Center
08:29PM 35.7369 -106.0872 197° South 336 387 12,800 -1,800 Descending Albuquerque Center
08:30PM 35.6608 -106.0936 184° South 304 350 11,400 -1,800 Descending Albuquerque Center
08:31PM 35.6758 -106.1381 293° West 226 260 9,200 -1,320 Descending Albuquerque Center
08:32PM 35.7250 -106.1003 32° Northeast 218 251 8,700 -660 Descending Albuquerque Center
08:33PM 35.6972 -106.0461 122° Southeast 181 208 7,900 -780 Descending Albuquerque Center
08:34PM 35.6575 -106.0544 190° South 148 170 7,100 -840 Descending Albuquerque Center
08:35PM 35.6258 -106.0811 214° Southwest 137 158 6,300 -840 Descending Albuquerque Center